Time;durP1;ratioP1;P1;durP2;ratioP2;P2;SDS_P1;SDS_P2;PMS_P1;PMS_P2;Temp;Humidity;BMP_temperature;BMP_pressure;BME280_temperature;BME280_humidity;BME280_pressure;Samples;Min_cycle;Max_cycle;Signal;HPM_P1;HPM_P2
2023/07/17 00:00:57;;;;;;;11.43;10.43;;;25.40;93.60;;;24.43;80.79;100018.44;10438770;27;98060;-88
2023/07/17 00:06:00;;;;;;;11.30;10.20;;;25.30;93.80;;;24.29;81.45;100016.16;10443325;27;96584;-88
2023/07/17 00:11:04;;;;;;;12.30;11.20;;;25.10;94.00;;;24.14;82.63;100013.34;10442752;27;96539;-88
2023/07/17 00:16:08;;;;;;;12.10;11.00;;;25.00;94.40;;;24.04;83.24;100018.69;10420022;27;98299;-88
2023/07/17 00:21:12;;;;;;;11.52;10.50;;;24.80;94.70;;;23.91;83.06;100011.00;10435019;27;97433;-87
2023/07/17 00:26:16;;;;;;;12.23;10.98;;;24.70;94.90;;;23.81;84.03;100014.47;10407777;27;96682;-87
2023/07/17 00:31:19;;;;;;;12.88;11.55;;;24.60;95.10;;;23.70;84.30;100016.28;10430598;27;96825;-87
2023/07/17 00:36:23;;;;;;;12.25;10.75;;;24.50;95.30;;;23.60;84.76;100024.28;10443323;27;96629;-87
2023/07/17 00:41:27;;;;;;;13.50;12.30;;;24.40;95.60;;;23.51;85.84;100025.84;10435115;27;98374;-87
2023/07/17 00:46:33;;;;;;;12.35;11.10;;;24.30;95.90;;;23.45;85.93;100026.84;10423282;27;98033;-87
2023/07/17 00:51:38;;;;;;;12.65;11.23;;;24.30;96.40;;;23.35;86.30;100027.59;10418340;27;96639;-87
2023/07/17 00:56:44;;;;;;;12.00;10.68;;;24.20;96.40;;;23.24;87.18;100039.41;10434073;27;96944;-87
2023/07/17 01:01:48;;;;;;;11.70;10.50;;;24.10;96.70;;;23.21;87.52;100031.75;10428399;27;98970;-87
2023/07/17 01:06:52;;;;;;;11.65;10.55;;;24.10;96.90;;;23.20;87.85;100024.69;10431057;27;97517;-87
2023/07/17 01:11:56;;;;;;;11.43;10.40;;;24.00;97.10;;;23.19;87.45;100023.06;10446689;27;96656;-87
2023/07/17 01:17:00;;;;;;;10.52;9.52;;;24.00;97.20;;;23.16;87.22;100012.75;10424055;27;98250;-87
2023/07/17 01:22:16;;;;;;;11.15;10.05;;;24.00;97.20;;;23.12;86.90;100011.63;10424007;27;98369;-87
2023/07/17 01:27:20;;;;;;;10.93;9.55;;;24.00;97.60;;;23.07;87.20;100004.25;10437200;27;96715;-87
2023/07/17 01:32:24;;;;;;;10.88;9.70;;;23.90;97.40;;;23.03;87.50;100002.28;10417047;27;98510;-87
2023/07/17 01:37:27;;;;;;;10.00;9.10;;;23.90;97.60;;;23.02;87.42;100012.31;10470586;27;96620;-87
2023/07/17 01:42:31;;;;;;;10.95;9.85;;;23.90;97.60;;;22.99;87.00;100010.13;10454781;27;96669;-91
2023/07/17 01:47:34;;;;;;;10.25;9.00;;;23.90;97.60;;;22.95;86.83;100009.81;10454530;27;96758;-87
2023/07/17 01:52:38;;;;;;;10.18;9.25;;;23.80;97.60;;;22.83;86.78;100013.69;10441498;27;97300;-87
2023/07/17 01:57:42;;;;;;;9.88;8.52;;;23.70;97.80;;;22.77;86.67;100020.13;10449195;27;97583;-87
2023/07/17 02:02:45;;;;;;;9.82;8.82;;;23.70;97.90;;;22.70;87.33;100017.59;10427266;27;96775;-87
2023/07/17 02:07:49;;;;;;;10.07;8.82;;;23.60;98.10;;;22.69;87.65;100033.03;10447503;27;96820;-88
2023/07/17 02:12:53;;;;;;;11.85;9.07;;;23.60;98.20;;;22.58;87.59;100033.97;10477512;27;96673;-88
2023/07/17 02:17:56;;;;;;;9.68;8.65;;;23.50;98.20;;;22.41;87.97;100038.63;10429985;27;97906;-87
2023/07/17 02:23:01;;;;;;;9.90;9.00;;;23.30;98.60;;;22.35;88.91;100037.72;10451504;27;96905;-88
2023/07/17 02:28:04;;;;;;;11.27;9.32;;;23.20;98.80;;;22.31;89.24;100049.28;10424058;27;96865;-88
2023/07/17 02:33:08;;;;;;;11.82;9.20;;;23.20;99.00;;;22.23;89.83;100058.66;10419558;27;98398;-88
2023/07/17 02:38:12;;;;;;;9.88;8.88;;;23.10;99.20;;;22.11;90.16;100069.56;10406044;27;96756;-87
2023/07/17 02:43:16;;;;;;;9.80;8.80;;;23.00;99.50;;;22.06;90.35;100082.97;10427298;27;97048;-88
2023/07/17 02:48:20;;;;;;;12.30;10.95;;;23.00;99.80;;;22.10;90.59;100081.47;10431031;27;98088;-87
2023/07/17 02:53:25;;;;;;;9.60;8.45;;;23.00;99.90;;;22.16;90.23;100085.06;10427545;27;98244;-87
2023/07/17 02:58:29;;;;;;;10.30;9.23;;;23.00;99.90;;;22.15;90.33;100078.84;10448374;27;96676;-87
2023/07/17 03:03:33;;;;;;;9.35;7.68;;;23.10;99.90;;;22.16;90.21;100075.06;10452960;27;98421;-87
2023/07/17 03:08:36;;;;;;;10.88;9.38;;;23.10;99.90;;;22.13;90.29;100075.56;10445348;27;97509;-87
2023/07/17 03:13:40;;;;;;;9.65;8.35;;;23.10;99.90;;;22.17;90.79;100075.88;10407542;27;96470;-87
2023/07/17 03:18:43;;;;;;;12.07;9.50;;;23.10;99.90;;;22.16;90.05;100080.47;10436586;27;96683;-87
2023/07/17 03:23:48;;;;;;;10.07;9.07;;;23.10;99.90;;;22.21;89.58;100076.22;10428141;27;97079;-87
2023/07/17 03:28:51;;;;;;;8.73;7.80;;;23.10;99.90;;;22.22;89.01;100073.25;10449595;27;96748;-87
2023/07/17 03:33:55;;;;;;;8.80;7.93;;;23.20;99.90;;;22.29;88.97;100065.78;10448720;27;96793;-88
2023/07/17 03:38:59;;;;;;;9.18;8.25;;;23.20;99.90;;;22.30;88.76;100063.88;10445244;27;96815;-88
2023/07/17 03:44:03;;;;;;;9.25;8.35;;;23.30;99.90;;;22.35;88.87;100067.50;10410144;27;97494;-88
2023/07/17 03:49:07;;;;;;;8.55;7.75;;;23.30;99.90;;;22.40;89.00;100072.16;10438215;27;96837;-88
2023/07/17 03:54:10;;;;;;;10.10;7.68;;;23.30;99.90;;;22.48;89.27;100071.75;10462027;27;97344;-87
2023/07/17 03:59:14;;;;;;;7.90;7.10;;;23.40;99.90;;;22.57;88.75;100072.97;10447156;27;97050;-87
2023/07/17 04:04:17;;;;;;;8.57;7.72;;;23.50;99.90;;;22.64;88.16;100070.06;10437326;27;97209;-87
2023/07/17 04:09:21;;;;;;;10.00;7.70;;;23.60;99.80;;;22.73;87.64;100078.56;10419157;27;96881;-87
2023/07/17 04:14:25;;;;;;;8.20;7.40;;;23.60;99.70;;;22.77;87.35;100080.53;10412778;27;97418;-87
2023/07/17 04:19:28;;;;;;;9.18;7.05;;;23.70;99.70;;;22.83;87.24;100073.28;10440079;27;98051;-87
2023/07/17 04:24:32;;;;;;;7.53;6.65;;;23.70;99.70;;;22.92;86.99;100078.06;10440411;27;96877;-87
2023/07/17 04:29:35;;;;;;;9.32;7.15;;;23.80;99.60;;;23.05;86.54;100084.19;10452356;27;97439;-87
2023/07/17 04:34:39;;;;;;;8.25;6.82;;;23.90;99.50;;;23.17;86.51;100088.38;10439634;27;97354;-86
2023/07/17 04:39:42;;;;;;;9.38;6.10;;;24.10;99.50;;;23.28;85.12;100083.09;10429514;27;96754;-86
2023/07/17 04:44:46;;;;;;;8.18;6.40;;;24.20;99.20;;;23.37;84.15;100089.69;10454895;27;96934;-85
2023/07/17 04:49:53;;;;;;;8.02;6.18;;;24.20;98.90;;;23.38;82.33;100081.28;10466961;27;97516;-86
2023/07/17 04:54:57;;;;;;;8.82;5.63;;;24.20;98.50;;;23.48;82.66;100088.72;10469217;27;98384;-85
2023/07/17 05:00:00;;;;;;;7.00;5.43;;;24.30;98.50;;;23.59;82.61;100093.19;10432196;27;98392;-86
2023/07/17 05:05:07;;;;;;;6.05;5.45;;;24.40;98.40;;;23.74;82.87;100085.19;10414337;27;97025;-86
2023/07/17 05:10:11;;;;;;;9.50;6.25;;;24.60;98.30;;;23.88;81.29;100091.03;10442375;27;98240;-87
2023/07/17 05:15:14;;;;;;;8.80;6.18;;;24.70;98.20;;;24.06;80.99;100091.75;10454665;27;98863;-86
2023/07/17 05:20:18;;;;;;;8.20;6.35;;;24.90;98.10;;;24.30;81.26;100101.16;10459365;27;98547;-86
2023/07/17 05:25:21;;;;;;;6.78;5.68;;;25.10;98.10;;;24.49;81.05;100083.38;10429429;27;96741;-87
2023/07/17 05:30:26;;;;;;;8.00;5.90;;;25.40;97.80;;;24.77;79.88;100082.19;10444993;27;98589;-86
2023/07/17 05:35:30;;;;;;;6.20;5.53;;;25.60;97.60;;;25.02;79.77;100084.19;10464628;27;96932;-86
2023/07/17 05:40:35;;;;;;;8.77;6.65;;;25.90;97.40;;;25.23;78.29;100068.78;10467241;27;97180;-86
2023/07/17 05:45:38;;;;;;;15.15;7.65;;;26.10;97.30;;;25.43;78.40;100072.63;10422538;27;96627;-86
2023/07/17 05:50:43;;;;;;;8.77;7.82;;;26.30;97.20;;;25.67;78.07;100075.66;10459587;27;96936;-86
2023/07/17 05:55:48;;;;;;;8.40;7.22;;;26.50;97.10;;;25.89;78.21;100082.53;10460652;27;96731;-85
2023/07/17 06:00:51;;;;;;;14.20;9.13;;;26.70;97.00;;;26.04;76.91;100073.56;10427243;27;97000;-87
2023/07/17 06:05:55;;;;;;;9.25;7.85;;;26.90;96.60;;;26.19;75.58;100083.59;10440944;27;97365;-86
2023/07/17 06:10:58;;;;;;;14.70;8.82;;;27.10;96.40;;;26.35;75.35;100071.59;10445807;27;96626;-88
2023/07/17 06:16:02;;;;;;;10.05;7.90;;;27.20;96.10;;;26.56;74.04;100079.75;10457213;27;96535;-87
2023/07/17 06:21:06;;;;;;;9.43;8.45;;;27.40;96.20;;;26.77;72.23;100070.44;10459887;27;97139;-87
2023/07/17 06:26:10;;;;;;;14.25;8.25;;;27.60;96.10;;;26.93;71.15;100068.47;10463113;27;96871;-88
2023/07/17 06:31:13;;;;;;;9.20;7.60;;;27.80;95.80;;;27.07;71.39;100068.72;10447367;27;96687;-87
2023/07/17 06:36:17;;;;;;;14.15;8.07;;;28.00;95.20;;;27.26;72.02;100075.16;10454274;27;98057;-86
2023/07/17 06:41:20;;;;;;;9.00;7.00;;;28.20;95.10;;;27.46;68.78;100076.94;10419102;27;97178;-87
2023/07/17 06:46:24;;;;;;;22.83;8.77;;;28.40;94.20;;;27.65;69.22;100068.88;10405318;27;96624;-87
2023/07/17 06:51:29;;;;;;;14.93;8.13;;;28.50;94.20;;;27.89;68.96;100069.84;10455015;27;96980;-87
2023/07/17 06:56:32;;;;;;;14.52;8.55;;;28.80;93.80;;;28.07;67.30;100064.75;10456025;27;97250;-87
2023/07/17 07:01:36;;;;;;;15.52;8.15;;;29.00;93.30;;;28.28;66.66;100060.75;10444375;27;97157;-88
2023/07/17 07:06:40;;;;;;;11.75;7.68;;;29.20;92.70;;;28.53;64.77;100063.22;10441265;27;97919;-87
2023/07/17 07:11:43;;;;;;;9.93;7.10;;;29.40;92.00;;;28.69;62.78;100041.19;10453817;27;96628;-87
2023/07/17 07:16:46;;;;;;;7.25;5.80;;;29.60;91.40;;;28.94;60.93;100051.84;10445045;27;97545;-87
2023/07/17 07:21:51;;;;;;;6.95;5.97;;;29.80;90.50;;;29.16;57.68;100045.81;10446864;27;96852;-86
2023/07/17 07:26:54;;;;;;;6.10;5.30;;;30.10;87.90;;;29.33;55.14;100048.03;10441578;27;98831;-86
2023/07/17 07:31:58;;;;;;;6.45;4.65;;;30.30;84.70;;;29.46;53.26;100041.81;10457633;27;96555;-86
2023/07/17 07:37:02;;;;;;;4.53;3.78;;;30.40;82.50;;;29.58;53.47;100047.69;10447763;27;96489;-86
2023/07/17 07:42:06;;;;;;;6.85;4.20;;;30.50;82.00;;;29.73;50.44;100032.09;10466329;27;97164;-85
2023/07/17 07:47:11;;;;;;;6.93;4.30;;;30.60;80.00;;;29.97;50.27;100038.25;10445025;27;96794;-86
2023/07/17 07:52:16;;;;;;;5.30;4.60;;;30.90;79.00;;;30.20;49.92;100038.44;10431898;27;96686;-86
2023/07/17 07:57:20;;;;;;;5.75;4.45;;;31.10;77.90;;;30.40;49.40;100043.53;10430811;27;96617;-86
2023/07/17 08:02:23;;;;;;;9.68;4.70;;;31.30;77.40;;;30.56;47.91;100046.81;10407458;27;96451;-86
2023/07/17 08:07:27;;;;;;;6.15;3.97;;;31.50;75.90;;;30.70;45.82;100042.16;10442198;27;98170;-87
2023/07/17 08:12:32;;;;;;;4.18;3.78;;;31.50;73.50;;;30.75;46.00;100044.78;10422331;27;96700;-86
2023/07/17 08:17:36;;;;;;;10.07;4.65;;;31.50;73.60;;;30.82;46.16;100038.88;10406947;27;98026;-86
2023/07/17 08:22:39;;;;;;;6.32;4.38;;;31.60;72.90;;;30.97;46.40;100037.78;10459867;27;96662;-86
2023/07/17 08:27:43;;;;;;;8.38;4.38;;;31.80;72.50;;;31.18;44.98;100037.00;10455404;27;96595;-87
2023/07/17 08:32:48;;;;;;;10.07;4.97;;;32.00;71.90;;;31.33;45.16;100044.13;10439865;27;97283;-86
2023/07/17 08:37:52;;;;;;;9.13;5.05;;;32.20;70.80;;;31.59;46.35;100041.56;10447062;27;97535;-86
2023/07/17 08:42:59;;;;;;;7.50;4.50;;;32.40;71.20;;;31.84;45.16;100047.59;10470791;27;96716;-85
2023/07/17 08:48:04;;;;;;;7.37;4.70;;;32.70;70.80;;;32.03;43.66;100056.47;10453296;27;98372;-85
2023/07/17 08:53:10;;;;;;;8.65;4.93;;;32.90;69.90;;;32.10;44.24;100045.81;10444610;27;96555;-85
2023/07/17 08:58:14;;;;;;;7.03;4.57;;;33.00;69.30;;;32.13;42.88;100050.69;10427374;27;96691;-85
2023/07/17 09:03:19;;;;;;;4.93;4.43;;;33.00;68.00;;;32.26;44.37;100050.91;10450857;27;96615;-85
2023/07/17 09:08:22;;;;;;;4.90;4.50;;;33.20;68.40;;;32.31;43.35;100057.06;10444240;27;96744;-85
2023/07/17 09:13:39;;;;;;;7.65;4.65;;;33.20;68.30;;;32.43;43.94;100046.31;10463927;27;96739;-85
2023/07/17 09:18:44;;;;;;;5.65;4.70;;;33.30;68.20;;;32.57;42.85;100048.97;10469276;27;96557;-85
2023/07/17 09:23:53;;;;;;;8.30;4.32;;;33.40;68.30;;;32.78;43.15;100046.44;10484620;27;96861;-85
2023/07/17 09:28:58;;;;;;;5.90;4.80;;;33.70;67.50;;;32.93;41.82;100036.97;10446908;27;97636;-86
2023/07/17 09:34:12;;;;;;;5.25;4.75;;;33.90;66.50;;;33.07;41.80;100032.13;10436853;27;96921;-86
2023/07/17 09:39:16;;;;;;;6.20;4.85;;;34.00;65.90;;;33.12;42.83;100026.47;10446308;27;96692;-86
2023/07/17 09:44:19;;;;;;;6.57;4.28;;;34.00;66.70;;;33.29;41.35;100037.50;10402772;27;96638;-86
2023/07/17 09:49:24;;;;;;;5.70;4.90;;;34.20;65.60;;;33.35;41.71;100029.03;10444691;27;96724;-86
2023/07/17 09:54:27;;;;;;;8.05;5.22;;;34.20;65.00;;;33.42;41.66;100035.75;10444767;27;96693;-86
2023/07/17 09:59:37;;;;;;;7.22;5.75;;;34.30;65.00;;;33.51;41.04;100030.22;10450089;27;96555;-85
2023/07/17 10:04:50;;;;;;;9.68;5.25;;;34.50;64.80;;;33.61;41.29;100024.38;10445429;27;96757;-86
2023/07/17 10:09:56;;;;;;;6.32;5.60;;;34.50;64.50;;;33.70;41.03;100024.34;10466769;27;96706;-85
2023/07/17 10:15:02;;;;;;;6.55;5.25;;;34.60;64.50;;;33.93;40.32;100027.75;10425288;27;96707;-85
2023/07/17 10:20:11;;;;;;;7.50;5.15;;;34.70;63.40;;;34.08;39.69;100024.47;10448201;27;96778;-85
2023/07/17 10:25:18;;;;;;;6.43;5.43;;;34.90;62.70;;;34.13;39.48;100010.53;10437004;27;96708;-85
2023/07/17 10:30:35;;;;;;;9.52;5.38;;;35.10;62.30;;;34.22;39.34;100005.75;10465984;27;96584;-85
2023/07/17 10:35:55;;;;;;;7.53;5.25;;;35.10;62.20;;;34.34;40.09;100000.34;10465004;27;96576;-85
2023/07/17 10:41:13;;;;;;;6.13;5.43;;;35.30;62.80;;;34.57;39.94;99987.13;10449601;27;96700;-85
2023/07/17 10:46:17;;;;;;;6.32;5.65;;;35.40;62.70;;;34.68;38.78;99981.22;10463752;27;97660;-85
2023/07/17 10:51:27;;;;;;;7.68;5.07;;;35.60;61.50;;;34.58;37.81;99977.69;10446980;27;96532;-85
2023/07/17 10:56:32;;;;;;;7.03;5.38;;;35.60;60.50;;;34.56;37.87;99973.66;10446822;27;97490;-85
2023/07/17 11:01:35;;;;;;;14.02;5.38;;;35.60;59.80;;;34.76;37.97;99966.56;10464429;27;96498;-85
2023/07/17 11:06:39;;;;;;;7.07;5.90;;;35.80;60.10;;;34.95;37.85;99972.44;10407782;28;96700;-85
2023/07/17 11:11:44;;;;;;;6.20;5.15;;;35.90;59.80;;;35.07;36.35;99963.44;10404034;27;96618;-86
2023/07/17 11:16:52;;;;;;;6.57;5.63;;;36.10;58.60;;;35.07;36.01;99960.66;10432008;28;96843;-85
2023/07/17 11:21:56;;;;;;;6.40;5.72;;;36.00;58.40;;;34.95;37.16;99942.06;10434233;28;96522;-86
2023/07/17 11:27:00;;;;;;;10.80;5.97;;;35.90;58.60;;;34.93;36.62;99940.81;10384446;28;96485;-85
2023/07/17 11:32:05;;;;;;;8.05;5.72;;;35.90;58.40;;;34.93;37.79;99936.09;10382524;28;96461;-85
2023/07/17 11:37:08;;;;;;;7.65;5.68;;;35.90;59.00;;;35.03;37.62;99926.59;10411454;27;98021;-84
2023/07/17 11:42:12;;;;;;;6.53;5.70;;;35.90;58.90;;;35.23;36.39;99913.91;10370095;28;96608;-85
2023/07/17 11:47:18;;;;;;;9.38;6.20;;;36.10;58.20;;;35.45;37.03;99896.16;10402149;28;98562;-85
2023/07/17 11:52:22;;;;;;;11.05;6.35;;;36.40;58.50;;;35.72;36.26;99903.00;10400318;28;96725;-87
2023/07/17 11:57:28;;;;;;;6.70;5.93;;;36.60;58.20;;;35.74;36.56;99898.72;10419876;27;96601;-85
2023/07/17 12:02:32;;;;;;;9.30;6.28;;;36.70;58.10;;;35.72;35.50;99886.41;10419397;27;98078;-85
2023/07/17 12:07:36;;;;;;;9.38;6.45;;;36.70;57.20;;;35.53;35.71;99882.25;10418172;28;96494;-86
2023/07/17 12:12:40;;;;;;;7.32;6.20;;;36.50;57.20;;;35.55;36.24;99882.72;10403385;28;96555;-86
2023/07/17 12:17:43;;;;;;;8.93;6.60;;;36.40;57.30;;;35.74;36.95;99879.38;10403730;28;96551;-85
2023/07/17 12:22:54;;;;;;;9.65;7.18;;;36.60;58.20;;;35.88;36.61;99881.84;10416265;28;98009;-86
2023/07/17 12:28:00;;;;;;;6.30;5.70;;;36.80;57.40;;;36.13;35.95;99864.09;10402613;28;97357;-86
2023/07/17 12:33:05;;;;;;;8.80;5.63;;;37.10;57.40;;;36.14;35.74;99870.44;10404574;28;96454;-86
2023/07/17 12:38:09;;;;;;;10.38;6.60;;;37.10;57.00;;;36.08;35.74;99869.06;10419098;28;96813;-86
2023/07/17 12:43:12;;;;;;;5.95;5.10;;;37.10;57.40;;;35.77;36.29;99844.75;10419973;28;96624;-86
2023/07/17 12:48:16;;;;;;;5.38;4.75;;;36.80;57.60;;;35.40;36.85;99851.00;10406905;27;96813;-86
2023/07/17 12:53:20;;;;;;;6.38;5.70;;;36.40;57.90;;;35.29;36.60;99857.31;10427247;28;96544;-86
2023/07/17 12:58:24;;;;;;;9.27;5.93;;;36.30;58.00;;;35.61;37.15;99837.13;10440172;27;96684;-86
2023/07/17 13:03:28;;;;;;;8.15;5.95;;;36.60;58.20;;;36.04;37.22;99838.53;10430762;27;96588;-86
2023/07/17 13:08:31;;;;;;;5.63;5.05;;;37.20;57.50;;;36.17;35.07;99831.03;10453271;27;97105;-86
2023/07/17 13:13:35;;;;;;;6.03;5.13;;;37.60;55.30;;;36.40;35.08;99829.38;10449910;27;96487;-86
2023/07/17 13:18:39;;;;;;;5.15;4.50;;;37.80;55.60;;;36.34;34.15;99827.97;10443436;27;96636;-86
2023/07/17 13:23:42;;;;;;;6.38;4.80;;;37.70;54.60;;;36.18;34.26;99814.09;10450078;27;96681;-87
2023/07/17 13:28:47;;;;;;;7.03;4.90;;;37.60;54.70;;;35.88;34.25;99830.13;10457509;27;96548;-86
2023/07/17 13:33:51;;;;;;;6.30;5.07;;;37.10;54.30;;;35.63;34.89;99839.56;10460779;27;96773;-85
2023/07/17 13:38:54;;;;;;;5.72;4.50;;;36.70;55.00;;;35.32;35.21;99838.06;10455298;27;98332;-85
2023/07/17 13:43:58;;;;;;;7.30;4.60;;;36.20;55.60;;;34.91;35.79;99847.28;10452736;27;98278;-85
2023/07/17 13:49:02;;;;;;;7.63;4.50;;;35.80;56.20;;;34.49;37.11;99843.75;10463365;27;98349;-85
2023/07/17 13:54:07;;;;;;;10.02;5.28;;;35.30;56.90;;;34.08;37.87;99856.31;10435552;27;97408;-86
2023/07/17 13:59:10;;;;;;;6.00;5.22;;;34.90;57.80;;;33.67;40.00;99866.03;10432823;27;97062;-86
2023/07/17 14:04:14;;;;;;;7.55;5.75;;;34.40;59.20;;;33.22;42.16;99877.44;10446871;27;97985;-86
2023/07/17 14:09:17;;;;;;;6.95;5.35;;;33.90;61.30;;;32.92;44.10;99884.78;10440345;27;96748;-87
2023/07/17 14:14:22;;;;;;;9.75;5.50;;;33.60;63.60;;;32.63;45.75;99910.16;10447908;27;96595;-88
2023/07/17 14:19:26;;;;;;;8.82;6.05;;;33.40;65.40;;;32.38;47.77;99919.16;10447746;27;96786;-87
2023/07/17 14:24:29;;;;;;;10.35;6.60;;;33.10;67.00;;;32.17;49.24;99925.22;10431846;27;96575;-86
2023/07/17 14:29:33;;;;;;;7.80;6.20;;;32.80;68.70;;;31.96;50.06;99941.47;10437380;27;96710;-87
2023/07/17 14:34:40;;;;;;;6.88;6.15;;;32.70;69.40;;;31.53;52.46;99941.22;10413521;27;96643;-85
2023/07/17 14:39:44;;;;;;;10.67;5.87;;;32.30;70.70;;;31.16;53.23;99951.41;10404094;27;96901;-86
2023/07/17 14:44:48;;;;;;;9.15;6.20;;;31.90;71.60;;;30.90;53.66;99933.94;10436817;27;98134;-87
2023/07/17 14:49:51;;;;;;;10.95;6.45;;;31.60;72.30;;;30.80;53.29;99925.94;10431779;27;97256;-86
2023/07/17 14:54:56;;;;;;;8.95;6.15;;;31.60;72.20;;;30.84;53.66;99910.50;10420686;27;98081;-85
2023/07/17 14:59:59;;;;;;;7.07;5.63;;;31.50;72.40;;;30.91;53.25;99919.91;10448476;27;96532;-87
2023/07/17 15:05:05;;;;;;;7.47;5.90;;;31.70;72.20;;;30.94;52.62;99929.44;10443231;27;96634;-86
2023/07/17 15:10:09;;;;;;;5.78;5.28;;;31.70;71.50;;;30.98;53.19;99933.19;10437470;27;96769;-86
2023/07/17 15:15:12;;;;;;;6.30;5.45;;;31.70;71.70;;;31.16;52.82;99921.22;10435480;27;96727;-86
2023/07/17 15:20:16;;;;;;;5.60;4.97;;;31.90;71.80;;;31.69;51.00;99909.47;10426473;27;96545;-86
2023/07/17 15:25:20;;;;;;;5.20;4.40;;;32.50;70.60;;;32.28;49.10;99898.25;10425711;27;96593;-86
2023/07/17 15:30:23;;;;;;;5.43;4.10;;;33.20;69.10;;;32.79;47.67;99920.69;10415633;27;97927;-86
2023/07/17 15:35:27;;;;;;;7.90;4.30;;;33.80;67.80;;;33.25;46.67;99923.63;10434351;27;98132;-86
2023/07/17 15:40:30;;;;;;;6.55;3.80;;;34.30;66.90;;;33.79;45.01;99925.97;10435982;27;96926;-87
2023/07/17 15:45:34;;;;;;;3.70;3.40;;;34.80;65.60;;;34.24;44.16;99929.00;10450529;27;96587;-87
2023/07/17 15:50:38;;;;;;;4.55;3.80;;;35.30;64.60;;;34.59;42.88;99931.59;10439670;27;98301;-87
2023/07/17 15:55:42;;;;;;;3.47;3.17;;;35.70;63.40;;;34.80;41.93;99937.97;10426598;27;97172;-87
2023/07/17 16:00:45;;;;;;;3.63;2.78;;;36.00;62.40;;;34.85;40.74;99937.75;10452431;27;98482;-87
2023/07/17 16:05:50;;;;;;;3.97;2.85;;;35.90;61.00;;;34.74;40.54;99944.81;10424429;27;97131;-87
2023/07/17 16:10:53;;;;;;;3.55;3.05;;;35.80;60.60;;;34.69;40.00;99939.50;10439920;27;98222;-87
2023/07/17 16:15:57;;;;;;;3.40;3.10;;;35.60;60.60;;;34.60;39.52;99955.28;10421175;27;97083;-87
2023/07/17 16:21:01;;;;;;;3.72;3.17;;;35.40;60.40;;;34.44;39.60;99962.56;10462299;27;98435;-87
2023/07/17 16:26:06;;;;;;;4.45;3.58;;;35.00;60.70;;;34.27;40.68;99961.47;10451955;27;98481;-87
2023/07/17 16:31:12;;;;;;;3.95;2.92;;;34.80;61.50;;;34.18;41.06;99976.41;10444419;27;98381;-87
2023/07/17 16:36:16;;;;;;;4.10;2.97;;;34.70;61.50;;;34.00;40.87;99964.66;10433249;27;97424;-87
2023/07/17 16:41:22;;;;;;;4.47;2.97;;;34.70;61.40;;;33.75;40.84;99977.34;10425775;27;96936;-85
2023/07/17 16:46:26;;;;;;;3.42;3.10;;;34.60;61.10;;;33.61;40.79;99983.06;10432463;27;96978;-86
2023/07/17 16:51:30;;;;;;;4.80;2.65;;;34.40;61.50;;;33.29;41.62;99987.94;10428533;27;96929;-84
2023/07/17 16:56:33;;;;;;;5.00;3.42;;;34.10;61.60;;;33.20;42.52;99995.38;10453771;27;97416;-85
2023/07/17 17:01:37;;;;;;;3.17;2.88;;;33.90;62.30;;;33.15;42.85;99991.97;10447770;27;96706;-86
2023/07/17 17:06:40;;;;;;;3.75;3.33;;;33.90;62.40;;;33.01;43.11;99983.88;10423719;27;96712;-86
2023/07/17 17:11:46;;;;;;;3.88;2.67;;;33.80;62.70;;;32.75;43.14;99973.63;10431843;27;96653;-86
2023/07/17 17:16:51;;;;;;;3.83;3.08;;;33.60;62.80;;;32.43;43.61;99980.31;10450881;27;96653;-86
2023/07/17 17:21:54;;;;;;;4.38;3.75;;;33.30;63.10;;;32.08;45.76;99995.03;10462188;27;96667;-86
2023/07/17 17:26:58;;;;;;;6.40;4.38;;;32.90;64.50;;;31.69;47.91;99991.06;10433121;27;96545;-86
2023/07/17 17:32:05;;;;;;;7.93;4.90;;;32.60;66.10;;;31.41;49.57;99990.38;10465150;27;96613;-86
2023/07/17 17:37:11;;;;;;;6.22;3.97;;;32.30;67.20;;;31.09;50.26;99986.72;10423354;27;97169;-86
2023/07/17 17:42:15;;;;;;;6.72;4.78;;;32.00;67.80;;;30.86;50.81;99999.56;10425065;27;98902;-86
2023/07/17 17:47:19;;;;;;;7.45;4.80;;;31.70;68.70;;;30.56;51.82;100006.47;10463595;27;96529;-86
2023/07/17 17:52:22;;;;;;;6.88;4.47;;;31.40;69.50;;;30.33;52.93;100011.03;10482268;27;96752;-86
2023/07/17 17:57:27;;;;;;;4.93;4.30;;;31.20;70.10;;;30.06;53.07;100011.00;10435613;27;97514;-86
2023/07/17 18:02:30;;;;;;;8.13;4.20;;;31.00;70.60;;;29.87;53.83;100019.28;10431440;27;96798;-86
2023/07/17 18:07:34;;;;;;;6.65;4.05;;;30.70;71.30;;;29.67;54.92;100016.88;10447287;27;98481;-86
2023/07/17 18:12:38;;;;;;;4.82;4.40;;;30.50;71.90;;;29.46;55.54;100028.13;10442120;27;96738;-86
2023/07/17 18:17:41;;;;;;;4.03;3.63;;;30.30;72.60;;;29.30;56.49;100034.94;10457129;27;97335;-86
2023/07/17 18:22:45;;;;;;;4.75;4.25;;;30.10;73.10;;;29.06;57.31;100033.06;10456135;27;96929;-86
2023/07/17 18:27:48;;;;;;;6.55;3.97;;;29.90;73.60;;;28.89;58.62;100035.47;10457211;27;96763;-87
2023/07/17 18:32:52;;;;;;;5.72;3.78;;;29.80;74.50;;;28.69;59.32;100033.00;10432095;27;97546;-87
2023/07/17 18:37:56;;;;;;;6.65;4.40;;;29.50;75.10;;;28.49;60.36;100045.00;10439284;27;96637;-86
2023/07/17 18:42:59;;;;;;;5.47;4.43;;;29.30;76.20;;;28.24;60.93;100043.28;10447713;27;96578;-87
2023/07/17 18:48:03;;;;;;;7.65;4.97;;;29.00;76.80;;;27.95;62.01;100041.38;10434629;27;97458;-86
2023/07/17 18:53:07;;;;;;;5.15;4.63;;;28.80;77.40;;;27.67;63.37;100036.69;10426067;27;97476;-87
2023/07/17 18:58:11;;;;;;;5.93;5.13;;;28.60;78.00;;;27.52;63.33;100050.44;10447197;27;96721;-86
2023/07/17 19:03:15;;;;;;;5.65;5.00;;;28.40;78.90;;;27.32;65.14;100054.94;10459575;27;96667;-86
2023/07/17 19:08:19;;;;;;;8.27;4.95;;;28.20;79.50;;;27.06;66.89;100072.53;10444202;27;97437;-86
2023/07/17 19:13:23;;;;;;;5.80;5.20;;;27.90;80.70;;;26.75;67.26;100067.19;10435375;27;96600;-86
2023/07/17 19:18:26;;;;;;;8.55;4.95;;;27.60;81.70;;;26.55;68.25;100067.22;10454772;27;97232;-86
2023/07/17 19:23:30;;;;;;;5.35;4.88;;;27.40;82.30;;;26.41;68.80;100069.72;10430915;27;96539;-86
2023/07/17 19:28:34;;;;;;;6.43;5.40;;;27.30;82.70;;;26.35;69.44;100065.34;10456770;27;97495;-86
2023/07/17 19:33:38;;;;;;;6.88;5.82;;;27.20;83.20;;;26.22;70.10;100055.84;10433106;27;96691;-87
2023/07/17 19:38:43;;;;;;;6.57;4.97;;;27.10;83.90;;;26.03;70.76;100054.75;10419048;27;97481;-87
2023/07/17 19:43:46;;;;;;;6.97;5.35;;;26.90;84.50;;;25.91;71.64;100062.38;10454265;27;96861;-86
2023/07/17 19:48:50;;;;;;;7.75;6.38;;;26.70;85.10;;;25.74;73.26;100063.47;10436568;27;98649;-86
2023/07/17 19:53:53;;;;;;;8.38;5.82;;;26.60;86.10;;;25.67;73.90;100075.66;10443586;27;98479;-87
2023/07/17 19:58:57;;;;;;;7.93;6.47;;;26.50;86.60;;;25.55;74.81;100062.31;10427455;27;97713;-87
2023/07/17 20:04:00;;;;;;;7.28;6.57;;;26.40;87.30;;;25.43;75.75;100067.19;10452595;27;97118;-87
2023/07/17 20:09:05;;;;;;;6.50;5.90;;;26.20;88.10;;;25.32;76.38;100075.34;10460415;27;96615;-87
2023/07/17 20:14:09;;;;;;;6.43;5.82;;;26.10;88.60;;;25.19;76.47;100077.72;10445742;27;96660;-87
2023/07/17 20:19:14;;;;;;;5.75;5.05;;;26.00;89.30;;;25.04;77.64;100078.47;10445174;27;98422;-87
2023/07/17 20:24:18;;;;;;;6.43;5.82;;;25.90;90.00;;;24.88;78.21;100077.59;10417842;27;96675;-87
2023/07/17 20:29:23;;;;;;;6.45;5.68;;;25.70;90.30;;;24.73;78.67;100070.19;10417714;27;96745;-87
2023/07/17 20:34:26;;;;;;;6.18;5.57;;;25.50;90.50;;;24.60;78.44;100064.44;10443219;27;96433;-87
2023/07/17 20:39:30;;;;;;;6.35;4.97;;;25.40;90.50;;;24.51;76.76;100083.09;10422534;27;98716;-87
2023/07/17 20:44:33;;;;;;;5.20;4.70;;;25.30;90.30;;;24.45;75.87;100112.13;10426891;27;96584;-86
2023/07/17 20:49:39;;;;;;;4.28;3.80;;;25.20;90.10;;;24.32;74.98;100111.75;10410832;27;96693;-86